Time;durP1;ratioP1;P1;durP2;ratioP2;P2;SDS_P1;SDS_P2;PMS_P1;PMS_P2;Temp;Humidity;BMP_temperature;BMP_pressure;BME280_temperature;BME280_humidity;BME280_pressure;Samples;Min_cycle;Max_cycle;Signal;HPM_P1;HPM_P2
2021/07/22 00:01:42;;;;;;;16.60;13.93;;;14.50;99.90;;;;;;4980135;28;20825;-55
2021/07/22 00:04:09;;;;;;;17.40;12.50;;;14.40;99.90;;;;;;4971547;28;21061;-57
2021/07/22 00:06:42;;;;;;;18.40;13.50;;;14.40;99.90;;;;;;4979183;28;20461;-54
2021/07/22 00:09:12;;;;;;;14.03;12.63;;;14.30;99.90;;;;;;4979194;28;20457;-56
2021/07/22 00:11:39;;;;;;;16.80;12.90;;;14.30;99.90;;;;;;4980424;28;20742;-55
2021/07/22 00:14:08;;;;;;;16.90;12.70;;;14.30;99.90;;;;;;4979666;28;20561;-57
2021/07/22 00:16:36;;;;;;;14.43;12.30;;;14.20;99.90;;;;;;4979668;28;20465;-56
2021/07/22 00:19:05;;;;;;;16.30;14.20;;;14.20;99.90;;;;;;4980040;28;20453;-56
2021/07/22 00:21:32;;;;;;;14.33;12.63;;;14.30;99.90;;;;;;4978429;28;20462;-55
2021/07/22 00:24:01;;;;;;;15.53;12.90;;;14.20;99.90;;;;;;4979034;28;20895;-55
2021/07/22 00:26:28;;;;;;;15.03;13.20;;;14.20;99.90;;;;;;4979125;28;20525;-56
2021/07/22 01:06:19;;;;;;;14.60;13.10;;;13.90;99.90;;;;;;4983720;23;20501;-55
2021/07/22 01:08:47;;;;;;;13.97;11.67;;;13.80;99.90;;;;;;4978246;28;20454;-52
2021/07/22 01:11:14;;;;;;;14.83;13.00;;;13.90;99.90;;;;;;4978924;28;21013;-53
2021/07/22 01:13:41;;;;;;;14.37;12.30;;;13.90;99.90;;;;;;4978691;28;20462;-55
2021/07/22 01:16:51;;;;;;;12.53;11.23;;;13.80;99.90;;;;;;4978796;28;20532;-56
2021/07/22 01:19:18;;;;;;;14.40;13.00;;;13.60;99.90;;;;;;4979374;28;20465;-56
2021/07/22 01:21:47;;;;;;;13.40;12.00;;;13.60;99.90;;;;;;4979003;28;20466;-57
2021/07/22 01:24:17;;;;;;;14.60;13.10;;;13.60;99.90;;;;;;4978949;28;20956;-56
2021/07/22 01:26:44;;;;;;;16.97;12.60;;;13.60;99.90;;;;;;4978930;28;20444;-56
2021/07/22 01:29:11;;;;;;;17.97;12.20;;;13.60;99.90;;;;;;4978994;28;20740;-54
2021/07/22 01:31:38;;;;;;;16.53;12.63;;;13.60;99.90;;;;;;4978602;28;20466;-55
2021/07/22 01:34:05;;;;;;;15.80;11.83;;;13.60;99.90;;;;;;4978595;28;20775;-57
2021/07/22 01:36:32;;;;;;;13.87;12.10;;;13.60;99.90;;;;;;4978984;28;20484;-58
2021/07/22 01:39:02;;;;;;;16.60;13.20;;;13.60;99.90;;;;;;4979157;28;20533;-57
2021/07/22 01:41:29;;;;;;;16.20;12.67;;;13.60;99.90;;;;;;4978097;28;20882;-57
2021/07/22 01:44:02;;;;;;;13.70;12.30;;;13.60;99.90;;;;;;4978781;28;20969;-57
2021/07/22 01:46:29;;;;;;;14.47;11.97;;;13.60;99.90;;;;;;4978634;28;20505;-57
2021/07/22 01:48:57;;;;;;;12.80;10.90;;;13.60;99.90;;;;;;4978493;28;20467;-56
2021/07/22 01:51:24;;;;;;;16.27;11.57;;;13.60;99.90;;;;;;4978711;28;20962;-57
2021/07/22 01:53:51;;;;;;;14.27;11.67;;;13.60;99.90;;;;;;4978159;28;20470;-56
2021/07/22 01:56:22;;;;;;;12.53;10.47;;;13.50;99.90;;;;;;4978191;28;20466;-58
2021/07/22 01:58:50;;;;;;;12.90;11.10;;;13.50;99.90;;;;;;4978221;28;20469;-58
2021/07/22 02:01:17;;;;;;;15.20;11.73;;;13.50;99.90;;;;;;4979324;28;20470;-58
2021/07/22 02:03:44;;;;;;;16.10;11.90;;;13.40;99.90;;;;;;4971536;28;20473;-55
2021/07/22 02:06:12;;;;;;;13.73;12.33;;;13.50;99.90;;;;;;4975092;28;20819;-54
2021/07/22 02:08:39;;;;;;;17.37;11.73;;;13.60;99.90;;;;;;4978198;28;20466;-55
2021/07/22 02:11:06;;;;;;;12.73;11.53;;;13.50;99.90;;;;;;4978731;28;20469;-56
2021/07/22 02:13:35;;;;;;;13.10;11.70;;;13.50;99.90;;;;;;4977994;28;20957;-54
2021/07/22 02:16:07;;;;;;;13.27;11.90;;;13.50;99.90;;;;;;4977954;28;20599;-58
2021/07/22 02:18:34;;;;;;;14.90;12.27;;;13.40;99.90;;;;;;4977957;28;20950;-56
2021/07/22 02:21:07;;;;;;;13.30;11.23;;;13.40;99.90;;;;;;4978017;28;20814;-57
2021/07/22 02:23:35;;;;;;;15.60;12.40;;;13.30;99.90;;;;;;4978728;28;20582;-57
2021/07/22 02:26:04;;;;;;;12.73;11.33;;;13.30;99.90;;;;;;4978625;28;20534;-57
2021/07/22 02:28:31;;;;;;;14.03;12.00;;;13.30;99.90;;;;;;4978240;28;20480;-57
2021/07/22 02:31:04;;;;;;;13.43;12.03;;;13.30;99.90;;;;;;4977979;28;20461;-54
2021/07/22 03:11:12;;;;;;;14.37;12.87;;;13.20;99.90;;;;;;4996966;28;20516;-57
2021/07/22 03:13:44;;;;;;;12.87;10.93;;;13.40;99.90;;;;;;4988916;28;20536;-57
2021/07/22 03:16:14;;;;;;;14.40;11.60;;;13.40;99.90;;;;;;4981187;28;21015;-56
2021/07/22 03:18:44;;;;;;;15.20;11.90;;;13.40;99.90;;;;;;4981118;28;20454;-57
2021/07/22 03:21:14;;;;;;;16.23;12.07;;;13.30;99.90;;;;;;4983344;28;20457;-57
2021/07/22 03:23:41;;;;;;;14.00;12.27;;;13.30;99.90;;;;;;5000592;28;20464;-55
2021/07/22 03:26:16;;;;;;;14.93;13.33;;;13.30;99.90;;;;;;4999957;28;20890;-57
2021/07/22 03:28:47;;;;;;;16.57;13.27;;;13.30;99.90;;;;;;4999360;28;20464;-56
2021/07/22 03:31:16;;;;;;;13.30;11.20;;;13.40;99.90;;;;;;5000096;28;20439;-57
2021/07/22 03:33:48;;;;;;;14.07;12.03;;;13.50;99.90;;;;;;5000421;28;20624;-58
2021/07/22 03:36:17;;;;;;;15.10;11.63;;;13.50;99.90;;;;;;5000661;28;20941;-58
2021/07/22 03:38:48;;;;;;;14.97;13.13;;;13.40;99.90;;;;;;4993187;28;20521;-58
2021/07/22 03:41:17;;;;;;;13.70;12.30;;;13.50;99.90;;;;;;4980733;28;20445;-58
2021/07/22 03:43:44;;;;;;;14.17;12.57;;;13.40;99.90;;;;;;4980755;28;20470;-58
2021/07/22 03:46:12;;;;;;;12.43;11.10;;;13.50;99.90;;;;;;4980452;28;20907;-58
2021/07/22 03:48:39;;;;;;;15.80;13.30;;;13.50;99.90;;;;;;4980875;28;20544;-58
2021/07/22 03:51:06;;;;;;;15.27;12.50;;;13.50;99.90;;;;;;4980836;28;20494;-58
2021/07/22 03:53:36;;;;;;;14.03;12.53;;;13.40;99.90;;;;;;4980507;28;20568;-58
2021/07/22 03:56:04;;;;;;;13.57;12.27;;;13.40;99.90;;;;;;4980563;28;20588;-58
2021/07/22 03:58:33;;;;;;;14.20;12.53;;;13.50;99.90;;;;;;4980460;28;20520;-59
2021/07/22 04:01:00;;;;;;;12.53;11.07;;;13.50;99.90;;;;;;4980497;28;20465;-59
2021/07/22 04:03:28;;;;;;;15.20;11.87;;;13.50;99.90;;;;;;4980576;28;20481;-58
2021/07/22 04:05:56;;;;;;;14.17;12.43;;;13.50;99.90;;;;;;4991616;28;20479;-57
2021/07/22 04:08:24;;;;;;;14.80;12.07;;;13.50;99.90;;;;;;4980566;28;21068;-58
2021/07/22 04:10:51;;;;;;;14.30;11.27;;;13.50;99.90;;;;;;4979742;28;20497;-58
2021/07/22 04:13:20;;;;;;;13.23;11.80;;;13.50;99.90;;;;;;4987620;28;20500;-58
2021/07/22 04:15:49;;;;;;;14.30;12.10;;;13.40;99.90;;;;;;4999558;28;20501;-58
2021/07/22 04:18:19;;;;;;;15.63;11.93;;;13.50;99.90;;;;;;4999538;28;20469;-58
2021/07/22 04:20:46;;;;;;;12.53;11.27;;;13.50;99.90;;;;;;4999070;28;20496;-58
2021/07/22 04:23:19;;;;;;;15.90;12.90;;;13.60;99.90;;;;;;4980623;28;20469;-59
2021/07/22 04:25:46;;;;;;;13.40;11.13;;;13.70;99.90;;;;;;4979624;28;20457;-59
2021/07/22 04:28:18;;;;;;;15.47;12.17;;;13.70;99.90;;;;;;4979875;28;20525;-58
2021/07/22 04:30:45;;;;;;;12.80;11.20;;;13.90;99.90;;;;;;4979925;28;20505;-59
2021/07/22 04:33:18;;;;;;;13.27;11.90;;;14.00;99.90;;;;;;4979453;28;20553;-59
2021/07/22 04:35:48;;;;;;;12.37;11.10;;;14.00;99.90;;;;;;4979446;28;20950;-58
2021/07/22 04:38:15;;;;;;;18.33;12.67;;;14.00;99.90;;;;;;4982033;28;20556;-58
2021/07/22 04:40:42;;;;;;;13.47;11.90;;;14.00;99.90;;;;;;4999251;28;20476;-58
2021/07/22 04:43:09;;;;;;;17.63;12.60;;;14.10;99.90;;;;;;4999103;28;20465;-58
2021/07/22 04:45:36;;;;;;;13.27;11.87;;;14.10;99.90;;;;;;4998971;28;20462;-59
2021/07/22 04:48:07;;;;;;;14.87;12.43;;;14.20;99.90;;;;;;4999238;28;20465;-58
2021/07/22 04:50:35;;;;;;;15.70;11.83;;;14.20;99.90;;;;;;4999052;28;20882;-58
2021/07/22 04:53:02;;;;;;;14.90;12.93;;;14.20;99.90;;;;;;4998797;28;20461;-58
2021/07/22 04:55:29;;;;;;;14.13;11.10;;;14.30;99.90;;;;;;4999546;28;20493;-58
2021/07/22 04:58:00;;;;;;;15.23;12.37;;;14.20;99.90;;;;;;4998808;28;20488;-57
2021/07/22 05:00:27;;;;;;;13.10;10.80;;;14.30;99.90;;;;;;4999326;28;20464;-58
2021/07/22 05:02:57;;;;;;;12.83;11.20;;;14.30;99.90;;;;;;4994552;28;20465;-58
2021/07/22 05:05:25;;;;;;;13.00;11.60;;;14.40;99.90;;;;;;4993296;28;20493;-58
2021/07/22 05:07:53;;;;;;;13.17;11.67;;;14.40;99.90;;;;;;4998278;28;20898;-58
2021/07/22 05:10:20;;;;;;;14.17;11.97;;;14.50;99.90;;;;;;4998068;28;20511;-58
2021/07/22 05:12:47;;;;;;;20.20;12.63;;;14.60;99.90;;;;;;4998299;28;20889;-58
2021/07/22 05:15:14;;;;;;;15.23;13.60;;;14.80;99.90;;;;;;4998583;28;20528;-58
2021/07/22 05:17:43;;;;;;;16.93;13.60;;;14.90;99.90;;;;;;4998125;28;20469;-58
2021/07/22 05:20:11;;;;;;;15.17;12.53;;;14.90;99.90;;;;;;4998525;28;20523;-58
2021/07/22 05:22:38;;;;;;;15.07;13.37;;;15.00;99.90;;;;;;4998377;28;20464;-58
2021/07/22 05:25:10;;;;;;;15.80;12.70;;;15.10;99.90;;;;;;4998574;28;20461;-58
2021/07/22 05:27:37;;;;;;;14.77;12.20;;;15.20;99.90;;;;;;4998299;28;20523;-57
2021/07/22 05:30:05;;;;;;;15.50;13.20;;;15.30;99.90;;;;;;4998338;28;20897;-58
2021/07/22 05:32:33;;;;;;;15.33;12.37;;;15.40;99.90;;;;;;4998001;28;20472;-58
2021/07/22 05:35:00;;;;;;;16.67;13.30;;;15.50;99.90;;;;;;4998464;28;20488;-56
2021/07/22 05:37:28;;;;;;;15.40;13.80;;;15.60;99.90;;;;;;4998625;28;20461;-57
2021/07/22 05:39:55;;;;;;;14.30;12.80;;;15.80;99.90;;;;;;4997599;28;20527;-57
2021/07/22 05:42:23;;;;;;;17.17;13.10;;;15.90;99.90;;;;;;4998112;28;20801;-57
2021/07/22 05:44:50;;;;;;;17.73;13.50;;;16.10;99.90;;;;;;4998007;28;20465;-58
2021/07/22 05:47:17;;;;;;;14.80;12.93;;;16.30;99.90;;;;;;4998268;28;20471;-58
2021/07/22 05:49:44;;;;;;;14.67;13.17;;;16.50;99.90;;;;;;4997413;28;20461;-53
2021/07/22 05:52:13;;;;;;;13.60;12.00;;;16.80;99.90;;;;;;4998245;28;20461;-58
2021/07/22 05:54:40;;;;;;;16.50;12.73;;;17.00;99.90;;;;;;4998038;28;20472;-58
2021/07/22 05:57:08;;;;;;;12.63;11.33;;;17.20;99.90;;;;;;4997767;28;20590;-56
2021/07/22 05:59:37;;;;;;;16.67;12.87;;;17.20;99.90;;;;;;4997867;28;20467;-57
2021/07/22 06:02:08;;;;;;;14.80;11.50;;;17.40;99.90;;;;;;4996529;28;20464;-57
2021/07/22 06:04:35;;;;;;;15.40;12.60;;;17.70;99.90;;;;;;4984045;28;20480;-55
2021/07/22 06:07:08;;;;;;;14.10;12.20;;;17.80;99.90;;;;;;4987129;28;20454;-55
2021/07/22 06:09:35;;;;;;;14.57;12.77;;;17.90;99.90;;;;;;4990441;28;20492;-57
2021/07/22 06:12:02;;;;;;;13.40;12.00;;;18.10;99.90;;;;;;4997699;28;20886;-57
2021/07/22 06:14:29;;;;;;;13.77;11.63;;;18.20;99.90;;;;;;4979235;28;20475;-57
2021/07/22 06:16:57;;;;;;;13.73;12.07;;;18.40;99.90;;;;;;4977473;28;20498;-57
2021/07/22 06:19:24;;;;;;;14.53;12.60;;;18.70;99.90;;;;;;4977748;28;20465;-55
2021/07/22 06:21:51;;;;;;;14.67;11.80;;;19.00;99.90;;;;;;4986819;28;20531;-53
2021/07/22 06:24:18;;;;;;;14.70;12.37;;;19.20;99.90;;;;;;4997976;28;20523;-55
2021/07/22 06:26:47;;;;;;;12.93;11.63;;;19.50;99.90;;;;;;4997657;28;20515;-57
2021/07/22 06:29:17;;;;;;;12.70;11.10;;;19.50;99.90;;;;;;4998081;28;20461;-54
2021/07/22 06:31:44;;;;;;;14.07;11.43;;;19.50;99.90;;;;;;4996205;28;20469;-56
2021/07/22 06:34:13;;;;;;;13.50;11.87;;;19.40;99.90;;;;;;4997388;28;20465;-57
2021/07/22 06:36:40;;;;;;;13.20;11.53;;;19.50;99.90;;;;;;4997245;28;20567;-55
2021/07/22 06:39:07;;;;;;;15.73;11.90;;;19.50;99.90;;;;;;4987486;28;20454;-56
2021/07/22 06:41:34;;;;;;;16.07;13.03;;;19.70;99.90;;;;;;4977663;28;20462;-56
2021/07/22 06:44:01;;;;;;;14.80;12.70;;;19.80;99.90;;;;;;4977670;28;20520;-55
2021/07/22 06:46:28;;;;;;;12.20;10.93;;;20.00;99.90;;;;;;4981769;28;20525;-56
2021/07/22 06:48:57;;;;;;;12.00;10.80;;;20.10;99.90;;;;;;4981996;28;20465;-52
2021/07/22 06:51:25;;;;;;;13.30;11.60;;;20.10;99.90;;;;;;4981850;28;20504;-55
2021/07/22 06:53:52;;;;;;;12.73;11.43;;;20.20;99.90;;;;;;4981878;28;20466;-57
2021/07/22 06:56:20;;;;;;;15.30;12.53;;;20.10;99.90;;;;;;4981977;28;20497;-57
2021/07/22 06:58:48;;;;;;;13.47;12.10;;;20.10;99.90;;;;;;4981794;28;20961;-54
2021/07/22 07:01:15;;;;;;;13.60;12.10;;;20.10;99.90;;;;;;4981132;28;20974;-56
2021/07/22 07:03:42;;;;;;;13.37;11.27;;;20.00;99.90;;;;;;4984103;28;20531;-56
2021/07/22 07:06:09;;;;;;;14.70;12.90;;;20.00;99.90;;;;;;4997896;28;20477;-55
2021/07/22 07:08:38;;;;;;;14.80;12.70;;;20.00;99.90;;;;;;5001142;28;20456;-57
2021/07/22 07:11:08;;;;;;;14.90;11.70;;;19.80;99.90;;;;;;5000331;28;20937;-57
2021/07/22 07:13:37;;;;;;;16.70;12.30;;;19.70;99.90;;;;;;5000718;28;20497;-57
2021/07/22 07:16:06;;;;;;;14.00;11.67;;;19.60;99.90;;;;;;5000039;28;20965;-56
2021/07/22 07:18:33;;;;;;;12.90;11.30;;;19.60;99.90;;;;;;4986550;28;20500;-57
2021/07/22 07:21:04;;;;;;;13.70;12.17;;;19.50;99.90;;;;;;4999601;28;20475;-57
2021/07/22 07:23:31;;;;;;;13.40;11.67;;;19.50;99.90;;;;;;4981031;28;20508;-54
2021/07/22 07:26:03;;;;;;;12.30;11.10;;;19.70;99.90;;;;;;4981141;28;20462;-54
2021/07/22 07:28:30;;;;;;;15.97;11.93;;;20.00;99.90;;;;;;4981232;28;20465;-56
2021/07/22 07:31:00;;;;;;;13.63;11.50;;;20.10;99.90;;;;;;4980960;28;20577;-55
2021/07/22 07:33:28;;;;;;;13.70;10.57;;;20.20;99.90;;;;;;4980899;28;20945;-55
2021/07/22 07:35:55;;;;;;;14.20;12.70;;;20.10;99.90;;;;;;4980973;28;20993;-53
2021/07/22 07:38:22;;;;;;;12.60;11.20;;;20.20;99.90;;;;;;4980928;28;20454;-57
2021/07/22 07:40:52;;;;;;;15.17;12.00;;;20.30;99.90;;;;;;4980912;28;20524;-56
2021/07/22 07:43:22;;;;;;;12.73;11.53;;;20.40;99.90;;;;;;4980954;28;20524;-56
2021/07/22 07:45:49;;;;;;;12.90;11.70;;;20.40;99.90;;;;;;4980689;28;20469;-53
2021/07/22 07:48:16;;;;;;;16.20;11.70;;;20.40;99.90;;;;;;4980882;28;20524;-56
2021/07/22 07:50:43;;;;;;;14.00;12.60;;;20.50;99.90;;;;;;4980693;28;20462;-53
2021/07/22 07:53:14;;;;;;;14.10;11.87;;;20.40;99.90;;;;;;4980364;28;20462;-55
2021/07/22 07:55:47;;;;;;;15.30;13.03;;;20.40;99.90;;;;;;4979679;28;20465;-56
2021/07/22 07:58:14;;;;;;;13.53;12.20;;;20.60;99.90;;;;;;4980827;28;20466;-54
2021/07/22 08:00:47;;;;;;;13.30;12.00;;;20.80;99.90;;;;;;4980438;28;20528;-52
2021/07/22 08:03:20;;;;;;;13.03;11.83;;;20.80;99.90;;;;;;4979498;28;20552;-56
2021/07/22 08:05:48;;;;;;;13.77;12.37;;;20.90;99.90;;;;;;4992509;28;20961;-54
2021/07/22 08:08:17;;;;;;;12.77;11.50;;;20.90;99.90;;;;;;4981310;28;20493;-55
2021/07/22 08:10:44;;;;;;;13.87;12.40;;;21.00;99.90;;;;;;4998103;28;20495;-54
2021/07/22 08:13:14;;;;;;;14.03;12.60;;;21.20;99.90;;;;;;4991554;28;20457;-55
2021/07/22 08:15:45;;;;;;;16.20;13.53;;;21.10;99.90;;;;;;4978834;28;20465;-55
2021/07/22 08:18:15;;;;;;;14.63;13.13;;;21.30;99.90;;;;;;4980009;28;20533;-57
2021/07/22 08:20:42;;;;;;;13.87;12.50;;;21.50;99.90;;;;;;4979816;28;20532;-56
2021/07/22 08:23:11;;;;;;;14.53;12.83;;;21.70;99.90;;;;;;4997687;28;20473;-57
2021/07/22 08:25:38;;;;;;;16.00;13.10;;;21.80;99.90;;;;;;4999369;28;20469;-57
2021/07/22 08:28:07;;;;;;;14.30;12.20;;;21.80;99.90;;;;;;4999496;28;20479;-57
2021/07/22 08:30:35;;;;;;;14.13;12.70;;;21.90;99.90;;;;;;4999634;28;20476;-54
2021/07/22 08:33:05;;;;;;;15.10;13.60;;;21.90;99.90;;;;;;4998926;28;20469;-54
2021/07/22 08:35:34;;;;;;;15.10;12.50;;;22.00;99.90;;;;;;4999160;28;20487;-57
2021/07/22 08:38:01;;;;;;;15.13;12.20;;;22.10;99.90;;;;;;4998540;28;20847;-55
2021/07/22 08:40:28;;;;;;;12.37;11.07;;;22.30;99.90;;;;;;4979757;28;20969;-57
2021/07/22 08:43:04;;;;;;;11.27;10.17;;;22.50;99.90;;;;;;4979444;28;20901;-56
2021/07/22 08:45:31;;;;;;;15.17;12.50;;;23.20;99.90;;;;;;4979321;28;20469;-55
2021/07/22 08:47:59;;;;;;;12.10;10.90;;;24.10;96.70;;;;;;4979874;28;20489;-57
2021/07/22 08:50:27;;;;;;;12.87;11.57;;;24.90;94.00;;;;;;4979614;28;20473;-55
2021/07/22 08:52:57;;;;;;;13.53;12.17;;;25.20;90.70;;;;;;4979721;28;20886;-54
2021/07/22 08:55:25;;;;;;;13.17;11.13;;;25.40;83.80;;;;;;4979164;28;20970;-54
2021/07/22 08:57:54;;;;;;;13.07;11.90;;;25.30;88.20;;;;;;4979477;28;20497;-56
2021/07/22 09:00:21;;;;;;;12.97;11.47;;;25.90;83.50;;;;;;4979220;28;20508;-57
2021/07/22 09:02:50;;;;;;;13.50;12.20;;;26.00;77.70;;;;;;4977788;28;20484;-58
2021/07/22 09:05:20;;;;;;;11.90;10.80;;;25.90;82.20;;;;;;4987432;28;20480;-56
2021/07/22 09:07:47;;;;;;;12.33;11.23;;;26.10;83.50;;;;;;4981540;28;20469;-57
2021/07/22 09:10:18;;;;;;;11.87;10.87;;;26.60;78.00;;;;;;4996861;28;20801;-56
2021/07/22 09:12:47;;;;;;;11.17;10.27;;;26.90;72.90;;;;;;4994631;28;20810;-53
2021/07/22 09:15:23;;;;;;;14.33;13.07;;;27.40;68.30;;;;;;4979035;28;20469;-57
2021/07/22 09:17:51;;;;;;;14.50;13.10;;;27.20;65.70;;;;;;4978661;28;20497;-57
2021/07/22 09:20:32;;;;;;;13.70;12.40;;;27.60;68.60;;;;;;4979056;28;20478;-58
2021/07/22 09:23:00;;;;;;;12.63;11.43;;;28.10;67.90;;;;;;4996801;28;20475;-58
2021/07/22 09:25:43;;;;;;;13.10;11.93;;;28.30;62.60;;;;;;4997997;28;20559;-58
2021/07/22 09:28:13;;;;;;;13.50;12.30;;;28.60;60.30;;;;;;4998082;28;20460;-58
2021/07/22 09:30:54;;;;;;;14.00;12.70;;;28.20;57.10;;;;;;4997843;28;20476;-58
2021/07/22 09:33:42;;;;;;;13.37;12.17;;;27.00;58.10;;;;;;4998641;28;20940;-58
2021/07/22 09:36:30;;;;;;;14.40;13.10;;;27.50;58.80;;;;;;4997861;28;20469;-53
2021/07/22 09:39:21;;;;;;;13.90;12.67;;;27.60;57.60;;;;;;4989266;28;20497;-58
2021/07/22 09:42:01;;;;;;;14.20;12.87;;;27.10;58.60;;;;;;4978824;28;20895;-56
2021/07/22 09:44:33;;;;;;;14.30;13.00;;;26.90;58.60;;;;;;4978325;28;20465;-57
2021/07/22 09:47:01;;;;;;;17.10;14.77;;;26.50;58.10;;;;;;4978832;28;20462;-53
2021/07/22 09:49:36;;;;;;;15.47;14.07;;;26.20;59.90;;;;;;4979027;28;20469;-56
2021/07/22 09:52:05;;;;;;;17.90;16.00;;;26.90;60.00;;;;;;4978819;28;20836;-54
2021/07/22 09:54:36;;;;;;;16.37;14.90;;;27.70;56.90;;;;;;4977975;28;20915;-56
2021/07/22 09:57:13;;;;;;;16.43;14.67;;;28.10;58.10;;;;;;4978547;28;20501;-58
2021/07/22 09:59:48;;;;;;;16.10;13.30;;;28.70;55.30;;;;;;4978216;28;20492;-56
2021/07/22 10:02:19;;;;;;;16.07;14.30;;;29.40;55.00;;;;;;4978599;28;20888;-57
2021/07/22 10:04:51;;;;;;;17.77;15.97;;;29.90;55.30;;;;;;4981118;28;20867;-58
2021/07/22 10:07:26;;;;;;;21.87;14.17;;;29.50;52.60;;;;;;4978652;28;20462;-58
2021/07/22 10:09:56;;;;;;;15.63;13.97;;;29.00;51.60;;;;;;4992986;28;20488;-59
2021/07/22 10:12:25;;;;;;;16.57;14.80;;;28.80;55.40;;;;;;4996887;28;20471;-58
2021/07/22 10:14:55;;;;;;;20.23;14.97;;;28.90;53.80;;;;;;4978180;28;20504;-59
2021/07/22 10:17:30;;;;;;;16.53;15.13;;;28.50;52.30;;;;;;4978282;28;20568;-57
2021/07/22 10:19:58;;;;;;;16.40;14.70;;;27.60;54.50;;;;;;4980762;28;20465;-58
2021/07/22 10:22:26;;;;;;;14.37;13.07;;;27.60;55.10;;;;;;4995375;28;20469;-58
2021/07/22 10:24:54;;;;;;;15.30;14.00;;;26.70;57.00;;;;;;5001702;28;20471;-57
2021/07/22 10:27:22;;;;;;;14.83;13.33;;;26.50;57.50;;;;;;5001373;28;20467;-58
2021/07/22 10:29:50;;;;;;;14.23;12.93;;;26.50;60.00;;;;;;5001663;28;20464;-56
2021/07/22 10:32:19;;;;;;;13.93;12.57;;;25.30;61.30;;;;;;5001645;28;20909;-55
2021/07/22 10:34:47;;;;;;;18.67;13.87;;;25.20;65.00;;;;;;5001354;28;20469;-55
2021/07/22 10:37:17;;;;;;;15.40;14.00;;;25.10;65.80;;;;;;5001094;28;20497;-55
2021/07/22 10:40:04;;;;;;;16.27;14.60;;;24.70;65.40;;;;;;4985903;28;20544;-55
2021/07/22 10:42:58;;;;;;;15.60;14.20;;;24.60;66.90;;;;;;4982043;28;20809;-57
2021/07/22 10:45:30;;;;;;;15.00;13.43;;;24.90;65.90;;;;;;4947100;28;20470;-56
2021/07/22 10:48:09;;;;;;;15.27;13.53;;;24.70;64.50;;;;;;4981976;28;20458;-57
2021/07/22 10:51:06;;;;;;;16.07;14.47;;;24.80;67.40;;;;;;4981769;28;20473;-56
2021/07/22 10:53:48;;;;;;;16.50;14.87;;;25.20;64.20;;;;;;4921847;29;20563;-57
2021/07/22 10:56:17;;;;;;;16.07;14.57;;;25.30;63.30;;;;;;4973850;28;20473;-55
2021/07/22 10:58:59;;;;;;;15.67;14.27;;;25.90;65.00;;;;;;4981661;28;20497;-54
2021/07/22 11:01:54;;;;;;;16.00;14.50;;;25.60;62.40;;;;;;4981291;28;20476;-57
2021/07/22 11:04:54;;;;;;;15.87;14.43;;;25.60;61.20;;;;;;4983798;28;20903;-53
2021/07/22 11:07:28;;;;;;;16.53;15.00;;;26.00;60.90;;;;;;4993080;28;20774;-54
2021/07/22 11:10:00;;;;;;;18.50;16.60;;;26.50;60.20;;;;;;4999496;28;20571;-56
2021/07/22 11:12:44;;;;;;;17.93;16.23;;;26.80;59.70;;;;;;4998646;28;20467;-56
2021/07/22 11:15:18;;;;;;;18.23;16.40;;;26.40;59.50;;;;;;4995687;28;20472;-53
2021/07/22 11:17:47;;;;;;;18.70;16.80;;;25.30;61.30;;;;;;5000852;28;20496;-54
2021/07/22 11:20:45;;;;;;;17.63;15.80;;;25.00;65.20;;;;;;5000104;28;20470;-54
2021/07/22 11:23:17;;;;;;;18.77;16.87;;;25.00;65.10;;;;;;4980907;28;20458;-54
2021/07/22 11:25:54;;;;;;;17.60;15.73;;;25.10;66.40;;;;;;4981164;28;20914;-57
2021/07/22 11:28:26;;;;;;;17.30;15.57;;;25.20;64.00;;;;;;4981164;28;20461;-55
2021/07/22 11:31:04;;;;;;;17.57;15.83;;;26.20;65.80;;;;;;4980762;28;20799;-56
2021/07/22 11:33:37;;;;;;;16.93;15.30;;;27.40;60.30;;;;;;4980593;28;20457;-58
2021/07/22 11:36:05;;;;;;;17.83;16.07;;;28.10;58.30;;;;;;4989528;28;20461;-57
2021/07/22 11:38:35;;;;;;;16.63;15.03;;;28.10;56.30;;;;;;4994537;28;20490;-57
2021/07/22 11:41:10;;;;;;;15.87;14.20;;;28.30;56.90;;;;;;4980037;28;20465;-58
2021/07/22 12:21:39;;;;;;;14.90;13.40;;;31.20;47.40;;;;;;2867053;23;20491;-59
2021/07/22 12:24:20;;;;;;;15.77;14.17;;;31.10;49.00;;;;;;4940751;29;20467;-59
2021/07/22 12:26:47;;;;;;;16.50;15.00;;;31.50;47.60;;;;;;4939530;29;20502;-58
2021/07/22 12:29:19;;;;;;;17.77;15.90;;;31.10;47.80;;;;;;4940442;29;20490;-52
2021/07/22 13:08:56;;;;;;;15.20;13.90;;;30.90;46.90;;;;;;3565398;23;20441;-58
2021/07/22 13:11:24;;;;;;;17.00;15.40;;;31.20;47.10;;;;;;4997341;28;21016;-55
2021/07/22 13:13:51;;;;;;;16.30;14.97;;;32.00;45.80;;;;;;4999092;28;20912;-59
2021/07/22 13:16:19;;;;;;;15.57;14.27;;;31.70;45.50;;;;;;4998256;28;20526;-57
2021/07/22 13:18:47;;;;;;;15.27;13.97;;;30.40;46.50;;;;;;4998571;28;20495;-57
2021/07/22 13:21:16;;;;;;;16.60;15.10;;;30.10;48.30;;;;;;4998614;28;20487;-56
2021/07/22 13:23:43;;;;;;;17.17;15.77;;;30.10;46.20;;;;;;4999017;28;20528;-57
2021/07/22 13:26:13;;;;;;;15.77;14.47;;;29.90;46.40;;;;;;4998586;28;20464;-59
2021/07/22 13:28:42;;;;;;;18.23;16.57;;;30.00;48.00;;;;;;4998535;28;20465;-58
2021/07/22 13:31:12;;;;;;;16.47;14.97;;;29.90;47.40;;;;;;4998611;28;20461;-58
2021/07/22 13:33:39;;;;;;;14.80;13.53;;;29.10;49.30;;;;;;4998216;28;20464;-56
2021/07/22 13:36:07;;;;;;;17.80;16.23;;;28.60;49.60;;;;;;4998128;28;20469;-59
2021/07/22 13:38:39;;;;;;;17.20;15.77;;;29.10;50.80;;;;;;4998404;28;20496;-57
2021/07/22 13:41:11;;;;;;;16.83;15.50;;;28.20;50.90;;;;;;4997891;28;20469;-59
2021/07/22 13:43:39;;;;;;;16.87;15.27;;;28.30;51.50;;;;;;4998195;28;20472;-56
2021/07/22 13:46:06;;;;;;;17.00;15.57;;;28.50;52.10;;;;;;4997917;28;20898;-58
2021/07/22 13:48:33;;;;;;;18.40;16.57;;;29.50;50.80;;;;;;4998356;28;20774;-58
2021/07/22 13:51:01;;;;;;;18.63;17.00;;;29.10;51.70;;;;;;4998535;28;20465;-56
2021/07/22 13:53:34;;;;;;;19.97;18.27;;;27.80;53.20;;;;;;4996953;28;20559;-56
2021/07/22 13:56:02;;;;;;;19.83;17.93;;;27.20;55.10;;;;;;4998247;28;20495;-56
2021/07/22 13:58:37;;;;;;;19.83;18.10;;;27.10;56.70;;;;;;4997320;28;20561;-57
2021/07/22 14:01:08;;;;;;;19.97;17.83;;;26.80;57.10;;;;;;4995804;28;20570;-55
2021/07/22 14:03:35;;;;;;;22.47;20.40;;;26.50;58.00;;;;;;4993841;28;20476;-57
2021/07/22 14:06:04;;;;;;;23.17;21.03;;;26.80;58.90;;;;;;5009365;28;20476;-56
2021/07/22 14:08:32;;;;;;;20.77;18.97;;;26.50;58.80;;;;;;4997311;28;20461;-56
2021/07/22 14:10:59;;;;;;;25.83;23.60;;;26.30;59.10;;;;;;4997517;28;20501;-54
2021/07/22 14:13:28;;;;;;;23.90;21.73;;;25.60;58.80;;;;;;4997294;28;20467;-57
2021/07/22 14:15:58;;;;;;;23.00;20.80;;;25.40;59.80;;;;;;4997578;28;20464;-53
2021/07/22 14:18:26;;;;;;;24.47;21.87;;;25.40;61.30;;;;;;4997803;28;20500;-54
2021/07/22 14:20:53;;;;;;;23.90;21.47;;;25.40;61.10;;;;;;4997786;28;20483;-54
2021/07/22 14:23:23;;;;;;;24.87;22.57;;;25.50;60.50;;;;;;5017407;28;20554;-57
2021/07/22 14:25:53;;;;;;;24.73;22.50;;;25.40;61.30;;;;;;5017199;28;20464;-57
2021/07/22 14:28:21;;;;;;;24.40;21.87;;;25.20;61.30;;;;;;5017458;28;20452;-55
2021/07/22 14:30:56;;;;;;;23.27;20.60;;;25.30;62.20;;;;;;5011916;28;20461;-56
2021/07/22 14:33:23;;;;;;;23.83;21.43;;;25.30;62.70;;;;;;4992712;28;20754;-52
2021/07/22 14:35:50;;;;;;;24.03;21.70;;;25.50;61.80;;;;;;4996527;28;20466;-58
2021/07/22 14:38:17;;;;;;;25.50;22.10;;;25.80;60.40;;;;;;4997022;28;20492;-58
2021/07/22 14:40:44;;;;;;;22.30;20.23;;;25.80;59.40;;;;;;4996804;28;20484;-55
2021/07/22 14:43:12;;;;;;;22.47;20.57;;;26.00;59.70;;;;;;4997591;28;20515;-56
2021/07/22 14:45:39;;;;;;;23.10;21.30;;;25.90;57.10;;;;;;4997300;28;20541;-55
2021/07/22 14:48:10;;;;;;;22.23;20.20;;;25.80;58.30;;;;;;4997486;28;20463;-54
2021/07/22 14:50:39;;;;;;;20.27;18.47;;;25.50;59.80;;;;;;4996939;28;20467;-56
2021/07/22 14:53:07;;;;;;;20.93;19.03;;;25.30;61.50;;;;;;5223152;23;1280510;-56
2021/07/22 14:55:34;;;;;;;20.67;18.73;;;25.30;63.30;;;;;;4997103;28;20214;-55
2021/07/22 14:58:03;;;;;;;20.53;18.40;;;25.50;63.80;;;;;;4997961;28;20504;-58
2021/07/22 15:00:31;;;;;;;19.13;17.60;;;25.80;63.70;;;;;;4997319;28;20461;-56
2021/07/22 15:03:02;;;;;;;19.03;17.40;;;26.10;62.50;;;;;;4993329;28;20492;-58
2021/07/22 15:05:31;;;;;;;19.77;17.87;;;26.20;62.80;;;;;;4984246;28;20469;-58
2021/07/22 15:07:58;;;;;;;20.67;18.80;;;26.40;61.70;;;;;;4998100;28;20897;-58
2021/07/22 15:10:26;;;;;;;18.67;16.83;;;27.10;59.60;;;;;;5000945;28;20499;-58